sensor_id;sensor_type;location;lat;lon;timestamp;pressure;altitude;pressure_sealevel;temperature;humidity
36932;BME280;22847;42.654;23.370;2023-04-10T00:01:13;94813.00;;;8.94;61.16
36932;BME280;22847;42.654;23.370;2023-04-10T00:03:38;94796.09;;;8.49;60.62
36932;BME280;22847;42.654;23.370;2023-04-10T00:06:04;94771.50;;;8.12;61.38
36932;BME280;22847;42.654;23.370;2023-04-10T00:08:30;94802.97;;;8.50;60.26
36932;BME280;22847;42.654;23.370;2023-04-10T00:10:55;94780.28;;;8.62;59.81
36932;BME280;22847;42.654;23.370;2023-04-10T00:13:21;94801.13;;;8.71;58.72
36932;BME280;22847;42.654;23.370;2023-04-10T00:15:47;94812.06;;;8.44;58.28
36932;BME280;22847;42.654;23.370;2023-04-10T00:18:12;94604.66;;;6.96;57.52
36932;BME280;22847;42.654;23.370;2023-04-10T00:20:38;94771.97;;;7.96;57.79
36932;BME280;22847;42.654;23.370;2023-04-10T00:23:03;94798.81;;;8.27;57.73
36932;BME280;22847;42.654;23.370;2023-04-10T00:25:29;94750.44;;;8.05;56.84
36932;BME280;22847;42.654;23.370;2023-04-10T00:27:54;94683.84;;;7.74;55.92
36932;BME280;22847;42.654;23.370;2023-04-10T00:30:20;94504.94;;;6.59;55.76
36932;BME280;22847;42.654;23.370;2023-04-10T00:32:46;94790.09;;;8.48;55.07
36932;BME280;22847;42.654;23.370;2023-04-10T00:35:11;94791.91;;;8.58;54.96
36932;BME280;22847;42.654;23.370;2023-04-10T00:37:37;94765.84;;;8.69;53.67
36932;BME280;22847;42.654;23.370;2023-04-10T00:40:03;94609.28;;;7.55;53.91
36932;BME280;22847;42.654;23.370;2023-04-10T00:42:29;94785.59;;;8.81;53.65
36932;BME280;22847;42.654;23.370;2023-04-10T00:44:54;94784.91;;;8.88;53.64
36932;BME280;22847;42.654;23.370;2023-04-10T00:47:20;94752.59;;;8.51;54.17
36932;BME280;22847;42.654;23.370;2023-04-10T00:49:46;94783.84;;;8.91;53.71
36932;BME280;22847;42.654;23.370;2023-04-10T00:52:11;94776.31;;;8.98;54.13
36932;BME280;22847;42.654;23.370;2023-04-10T00:54:37;94594.25;;;8.10;53.75
36932;BME280;22847;42.654;23.370;2023-04-10T00:57:02;94781.63;;;9.46;53.26
36932;BME280;22847;42.654;23.370;2023-04-10T00:59:29;94769.84;;;9.22;53.59
36932;BME280;22847;42.654;23.370;2023-04-10T01:01:54;94602.88;;;8.10;54.67
36932;BME280;22847;42.654;23.370;2023-04-10T01:04:21;94751.22;;;9.27;55.54
36932;BME280;22847;42.654;23.370;2023-04-10T01:09:47;94761.78;;;9.64;55.26
36932;BME280;22847;42.654;23.370;2023-04-10T01:15:01;94761.66;;;9.94;54.71
36932;BME280;22847;42.654;23.370;2023-04-10T01:20:17;94682.44;;;9.10;56.75
36932;BME280;22847;42.654;23.370;2023-04-10T01:26:01;94553.22;;;8.43;57.87
36932;BME280;22847;42.654;23.370;2023-04-10T01:31:41;94759.59;;;9.59;56.15
36932;BME280;22847;42.654;23.370;2023-04-10T01:34:16;94765.78;;;9.68;56.21
36932;BME280;22847;42.654;23.370;2023-04-10T01:36:54;94583.91;;;8.69;56.24
36932;BME280;22847;42.654;23.370;2023-04-10T01:39:21;94784.25;;;9.65;56.12
36932;BME280;22847;42.654;23.370;2023-04-10T01:41:51;94603.03;;;8.68;56.85
36932;BME280;22847;42.654;23.370;2023-04-10T01:44:20;94710.41;;;9.56;56.59
36932;BME280;22847;42.654;23.370;2023-04-10T01:46:48;94618.47;;;8.69;57.18
36932;BME280;22847;42.654;23.370;2023-04-10T01:49:14;94748.03;;;9.23;57.66
36932;BME280;22847;42.654;23.370;2023-04-10T01:51:42;94763.94;;;9.30;57.97
36932;BME280;22847;42.654;23.370;2023-04-10T01:54:08;94726.06;;;8.87;58.69
36932;BME280;22847;42.654;23.370;2023-04-10T01:56:34;94802.19;;;9.39;58.42
36932;BME280;22847;42.654;23.370;2023-04-10T01:59:00;94773.38;;;9.21;58.83
36932;BME280;22847;42.654;23.370;2023-04-10T02:01:28;94771.63;;;9.51;58.39
36932;BME280;22847;42.654;23.370;2023-04-10T02:03:53;94583.91;;;8.29;58.86
36932;BME280;22847;42.654;23.370;2023-04-10T02:11:40;94734.78;;;9.46;59.01
36932;BME280;22847;42.654;23.370;2023-04-10T02:14:10;94743.16;;;9.68;58.47
36932;BME280;22847;42.654;23.370;2023-04-10T02:16:41;94729.84;;;9.23;58.70
36932;BME280;22847;42.654;23.370;2023-04-10T02:19:09;94717.41;;;9.36;58.70
36932;BME280;22847;42.654;23.370;2023-04-10T02:21:35;94631.81;;;8.95;58.35
36932;BME280;22847;42.654;23.370;2023-04-10T02:24:02;94681.13;;;9.45;57.88
36932;BME280;22847;42.654;23.370;2023-04-10T02:26:27;94747.28;;;9.71;57.70
36932;BME280;22847;42.654;23.370;2023-04-10T02:28:52;94719.16;;;9.84;56.84
36932;BME280;22847;42.654;23.370;2023-04-10T02:31:18;94739.19;;;9.74;56.82
36932;BME280;22847;42.654;23.370;2023-04-10T02:33:43;94718.34;;;9.74;56.70
36932;BME280;22847;42.654;23.370;2023-04-10T02:36:09;94582.66;;;8.92;56.38
36932;BME280;22847;42.654;23.370;2023-04-10T02:38:34;94722.59;;;9.56;56.57
36932;BME280;22847;42.654;23.370;2023-04-10T02:40:59;94682.19;;;9.32;56.45
36932;BME280;22847;42.654;23.370;2023-04-10T02:43:25;94703.16;;;9.40;56.87
36932;BME280;22847;42.654;23.370;2023-04-10T02:45:50;94528.59;;;8.47;56.71
36932;BME280;22847;42.654;23.370;2023-04-10T02:48:16;94727.97;;;9.45;57.17
36932;BME280;22847;42.654;23.370;2023-04-10T02:50:41;94534.63;;;8.67;56.32
36932;BME280;22847;42.654;23.370;2023-04-10T02:53:12;94642.06;;;9.45;56.57
36932;BME280;22847;42.654;23.370;2023-04-10T02:55:38;94664.25;;;9.39;56.83
36932;BME280;22847;42.654;23.370;2023-04-10T02:58:04;94602.50;;;8.64;57.88
36932;BME280;22847;42.654;23.370;2023-04-10T03:00:29;94631.88;;;8.65;58.72
36932;BME280;22847;42.654;23.370;2023-04-10T03:02:55;94668.63;;;9.00;58.68
36932;BME280;22847;42.654;23.370;2023-04-10T03:05:20;94701.38;;;9.22;58.33
36932;BME280;22847;42.654;23.370;2023-04-10T03:07:46;94689.59;;;9.56;58.07
36932;BME280;22847;42.654;23.370;2023-04-10T03:10:11;94701.78;;;9.75;57.18
36932;BME280;22847;42.654;23.370;2023-04-10T03:12:36;94585.13;;;8.84;57.51
36932;BME280;22847;42.654;23.370;2023-04-10T03:15:02;94589.78;;;8.90;58.10
36932;BME280;22847;42.654;23.370;2023-04-10T03:17:27;94704.91;;;9.59;58.17
36932;BME280;22847;42.654;23.370;2023-04-10T03:19:53;94532.72;;;8.50;58.73
36932;BME280;22847;42.654;23.370;2023-04-10T03:22:18;94705.31;;;9.16;59.52
36932;BME280;22847;42.654;23.370;2023-04-10T03:24:44;94685.50;;;9.34;58.98
36932;BME280;22847;42.654;23.370;2023-04-10T03:27:09;94700.94;;;9.65;58.60
36932;BME280;22847;42.654;23.370;2023-04-10T03:29:34;94705.34;;;9.35;58.94
36932;BME280;22847;42.654;23.370;2023-04-10T03:32:00;94696.56;;;9.17;59.62
36932;BME280;22847;42.654;23.370;2023-04-10T03:34:25;94672.53;;;8.75;60.35
36932;BME280;22847;42.654;23.370;2023-04-10T03:36:51;94625.47;;;8.59;60.41
36932;BME280;22847;42.654;23.370;2023-04-10T03:39:16;94520.13;;;7.96;60.10
36932;BME280;22847;42.654;23.370;2023-04-10T03:41:41;94658.88;;;8.83;60.69
36932;BME280;22847;42.654;23.370;2023-04-10T03:44:07;94665.97;;;8.71;60.47
36932;BME280;22847;42.654;23.370;2023-04-10T03:46:32;94666.06;;;8.60;60.50
36932;BME280;22847;42.654;23.370;2023-04-10T03:48:57;94607.34;;;8.38;60.55
36932;BME280;22847;42.654;23.370;2023-04-10T03:51:23;94719.97;;;9.17;60.15
36932;BME280;22847;42.654;23.370;2023-04-10T03:53:49;94708.09;;;9.44;59.79
36932;BME280;22847;42.654;23.370;2023-04-10T03:56:15;94710.66;;;9.15;59.71
36932;BME280;22847;42.654;23.370;2023-04-10T03:58:40;94584.84;;;8.18;60.83
36932;BME280;22847;42.654;23.370;2023-04-10T04:01:06;94681.34;;;9.03;60.46
36932;BME280;22847;42.654;23.370;2023-04-10T04:03:31;94719.81;;;8.50;62.86
36932;BME280;22847;42.654;23.370;2023-04-10T04:05:57;94711.41;;;8.16;63.95
36932;BME280;22847;42.654;23.370;2023-04-10T04:08:22;94722.06;;;8.74;63.55
36932;BME280;22847;42.654;23.370;2023-04-10T04:10:48;94558.53;;;7.92;62.16
36932;BME280;22847;42.654;23.370;2023-04-10T04:13:13;94729.69;;;8.66;62.88
36932;BME280;22847;42.654;23.370;2023-04-10T04:15:38;94739.16;;;9.26;61.79
36932;BME280;22847;42.654;23.370;2023-04-10T04:18:04;94714.22;;;9.23;61.17
36932;BME280;22847;42.654;23.370;2023-04-10T04:20:30;94696.59;;;9.36;60.51
36932;BME280;22847;42.654;23.370;2023-04-10T04:22:55;94588.38;;;8.57;61.05
36932;BME280;22847;42.654;23.370;2023-04-10T04:25:21;94759.44;;;9.41;61.48
36932;BME280;22847;42.654;23.370;2023-04-10T04:27:46;94760.81;;;9.55;61.67
36932;BME280;22847;42.654;23.370;2023-04-10T04:30:12;94741.25;;;9.61;61.16
36932;BME280;22847;42.654;23.370;2023-04-10T04:32:37;94760.84;;;9.84;60.78
36932;BME280;22847;42.654;23.370;2023-04-10T04:35:02;94736.16;;;10.07;60.68
36932;BME280;22847;42.654;23.370;2023-04-10T04:37:28;94743.25;;;10.24;60.22
36932;BME280;22847;42.654;23.370;2023-04-10T04:39:53;94711.97;;;10.15;59.96
36932;BME280;22847;42.654;23.370;2023-04-10T04:42:19;94728.47;;;10.25;58.96
36932;BME280;22847;42.654;23.370;2023-04-10T04:44:44;94756.66;;;10.49;58.76
36932;BME280;22847;42.654;23.370;2023-04-10T04:47:10;94711.53;;;10.76;57.51
36932;BME280;22847;42.654;23.370;2023-04-10T04:49:35;94726.44;;;11.55;56.13
36932;BME280;22847;42.654;23.370;2023-04-10T04:52:01;94755.19;;;12.34;53.80
36932;BME280;22847;42.654;23.370;2023-04-10T04:54:26;94563.41;;;12.10;51.80
36932;BME280;22847;42.654;23.370;2023-04-10T04:56:52;94730.63;;;13.95;49.87
36932;BME280;22847;42.654;23.370;2023-04-10T04:59:17;94697.81;;;14.48;47.32
36932;BME280;22847;42.654;23.370;2023-04-10T05:01:43;94747.34;;;14.26;48.09
36932;BME280;22847;42.654;23.370;2023-04-10T05:04:08;94763.84;;;15.23;46.10
36932;BME280;22847;42.654;23.370;2023-04-10T05:06:33;94731.50;;;15.22;45.39
36932;BME280;22847;42.654;23.370;2023-04-10T05:08:59;94600.00;;;14.07;45.93
36932;BME280;22847;42.654;23.370;2023-04-10T05:11:25;94756.53;;;15.10;45.42
36932;BME280;22847;42.654;23.370;2023-04-10T05:13:50;94648.81;;;14.40;45.80
36932;BME280;22847;42.654;23.370;2023-04-10T05:16:16;94635.38;;;14.27;46.07
36932;BME280;22847;42.654;23.370;2023-04-10T05:18:41;94755.34;;;14.33;47.54
36932;BME280;22847;42.654;23.370;2023-04-10T05:21:06;94705.88;;;13.98;48.11
36932;BME280;22847;42.654;23.370;2023-04-10T05:23:32;94775.06;;;14.45;48.13
36932;BME280;22847;42.654;23.370;2023-04-10T05:25:57;94746.78;;;14.80;46.84
36932;BME280;22847;42.654;23.370;2023-04-10T05:28:23;94738.28;;;14.61;46.52
36932;BME280;22847;42.654;23.370;2023-04-10T05:31:07;94690.38;;;14.67;45.80
36932;BME280;22847;42.654;23.370;2023-04-10T05:33:32;94750.91;;;15.13;46.00
36932;BME280;22847;42.654;23.370;2023-04-10T05:35:57;94674.53;;;14.92;46.01
36932;BME280;22847;42.654;23.370;2023-04-10T05:38:23;94745.72;;;15.36;45.81
36932;BME280;22847;42.654;23.370;2023-04-10T05:40:49;94730.88;;;14.81;45.99
36932;BME280;22847;42.654;23.370;2023-04-10T05:43:14;94606.91;;;13.83;46.55
36932;BME280;22847;42.654;23.370;2023-04-10T05:45:43;94582.72;;;13.57;47.16
36932;BME280;22847;42.654;23.370;2023-04-10T05:48:08;94736.22;;;14.41;47.72
36932;BME280;22847;42.654;23.370;2023-04-10T05:50:34;94745.97;;;14.79;47.35
36932;BME280;22847;42.654;23.370;2023-04-10T05:53:00;94603.00;;;13.79;48.09
36932;BME280;22847;42.654;23.370;2023-04-10T05:55:25;94756.97;;;14.66;47.74
36932;BME280;22847;42.654;23.370;2023-04-10T05:57:50;94749.97;;;14.26;47.75
36932;BME280;22847;42.654;23.370;2023-04-10T06:00:16;94786.50;;;14.28;48.72
36932;BME280;22847;42.654;23.370;2023-04-10T06:02:42;94759.25;;;13.72;48.92
36932;BME280;22847;42.654;23.370;2023-04-10T06:05:07;94521.66;;;12.34;48.83
36932;BME280;22847;42.654;23.370;2023-04-10T06:07:33;94756.56;;;13.48;49.89
36932;BME280;22847;42.654;23.370;2023-04-10T06:09:58;94636.81;;;12.58;49.88
36932;BME280;22847;42.654;23.370;2023-04-10T06:12:24;94744.94;;;13.01;50.91
36932;BME280;22847;42.654;23.370;2023-04-10T06:14:49;94702.81;;;12.78;51.16
36932;BME280;22847;42.654;23.370;2023-04-10T06:17:15;94761.00;;;13.06;51.30
36932;BME280;22847;42.654;23.370;2023-04-10T06:19:40;94591.13;;;12.02;50.41
36932;BME280;22847;42.654;23.370;2023-04-10T06:22:05;94754.25;;;13.03;50.96
36932;BME280;22847;42.654;23.370;2023-04-10T06:24:31;94777.28;;;12.91;51.56
36932;BME280;22847;42.654;23.370;2023-04-10T06:26:56;94740.84;;;12.64;51.36
36932;BME280;22847;42.654;23.370;2023-04-10T06:29:22;94778.03;;;12.84;51.52
36932;BME280;22847;42.654;23.370;2023-04-10T06:31:47;94761.38;;;12.51;51.51
36932;BME280;22847;42.654;23.370;2023-04-10T06:34:13;94685.78;;;11.88;52.28
36932;BME280;22847;42.654;23.370;2023-04-10T06:36:38;94728.44;;;12.15;53.06
36932;BME280;22847;42.654;23.370;2023-04-10T06:39:04;94554.66;;;11.24;52.98
36932;BME280;22847;42.654;23.370;2023-04-10T06:41:30;94643.75;;;11.64;53.26
36932;BME280;22847;42.654;23.370;2023-04-10T06:43:56;94755.94;;;12.27;52.90
36932;BME280;22847;42.654;23.370;2023-04-10T06:46:21;94754.91;;;12.37;52.71
36932;BME280;22847;42.654;23.370;2023-04-10T06:48:46;94739.06;;;11.78;53.52
36932;BME280;22847;42.654;23.370;2023-04-10T06:51:12;94716.22;;;11.17;55.45
36932;BME280;22847;42.654;23.370;2023-04-10T06:53:37;94681.34;;;11.18;55.13
36932;BME280;22847;42.654;23.370;2023-04-10T06:56:03;94756.22;;;11.98;54.42
36932;BME280;22847;42.654;23.370;2023-04-10T06:58:28;94789.06;;;12.00;54.31
36932;BME280;22847;42.654;23.370;2023-04-10T07:00:54;94771.75;;;11.99;53.44
36932;BME280;22847;42.654;23.370;2023-04-10T07:03:19;94738.38;;;11.93;53.51
36932;BME280;22847;42.654;23.370;2023-04-10T07:05:45;94642.56;;;11.41;53.87
36932;BME280;22847;42.654;23.370;2023-04-10T07:08:10;94773.34;;;12.36;53.23
36932;BME280;22847;42.654;23.370;2023-04-10T07:10:35;94674.78;;;11.85;53.75
36932;BME280;22847;42.654;23.370;2023-04-10T07:13:01;94773.25;;;12.45;53.04
36932;BME280;22847;42.654;23.370;2023-04-10T07:15:27;94630.56;;;11.48;52.92
36932;BME280;22847;42.654;23.370;2023-04-10T07:17:52;94758.06;;;12.23;53.57
36932;BME280;22847;42.654;23.370;2023-04-10T07:20:17;94605.09;;;11.06;53.88
36932;BME280;22847;42.654;23.370;2023-04-10T07:22:43;94778.69;;;11.28;55.87
36932;BME280;22847;42.654;23.370;2023-04-10T07:25:08;94742.94;;;10.37;58.34
36932;BME280;22847;42.654;23.370;2023-04-10T07:27:34;94789.31;;;11.17;56.96
36932;BME280;22847;42.654;23.370;2023-04-10T07:30:00;94749.53;;;11.33;55.92
36932;BME280;22847;42.654;23.370;2023-04-10T07:32:25;94793.03;;;11.42;55.87
36932;BME280;22847;42.654;23.370;2023-04-10T07:34:50;94791.28;;;11.60;55.13
36932;BME280;22847;42.654;23.370;2023-04-10T07:37:16;94765.06;;;11.34;55.77
36932;BME280;22847;42.654;23.370;2023-04-10T07:39:42;94776.78;;;11.93;55.64
36932;BME280;22847;42.654;23.370;2023-04-10T07:42:09;94776.38;;;12.05;54.53
36932;BME280;22847;42.654;23.370;2023-04-10T07:44:35;94785.84;;;12.24;54.71
36932;BME280;22847;42.654;23.370;2023-04-10T07:47:00;94786.16;;;11.86;57.96
36932;BME280;22847;42.654;23.370;2023-04-10T07:49:25;94810.91;;;11.37;55.77
36932;BME280;22847;42.654;23.370;2023-04-10T07:51:51;94785.97;;;10.60;58.39
36932;BME280;22847;42.654;23.370;2023-04-10T07:54:16;94634.06;;;9.75;59.13
36932;BME280;22847;42.654;23.370;2023-04-10T07:56:42;94744.34;;;11.05;57.94
36932;BME280;22847;42.654;23.370;2023-04-10T07:59:07;94590.31;;;9.88;58.05
36932;BME280;22847;42.654;23.370;2023-04-10T08:01:32;94788.25;;;11.10;57.97
36932;BME280;22847;42.654;23.370;2023-04-10T08:03:58;94648.53;;;10.53;56.01
36932;BME280;22847;42.654;23.370;2023-04-10T08:06:23;94780.47;;;10.63;57.51
36932;BME280;22847;42.654;23.370;2023-04-10T08:08:49;94751.91;;;10.71;58.32
36932;BME280;22847;42.654;23.370;2023-04-10T08:11:27;94722.28;;;10.63;57.49
36932;BME280;22847;42.654;23.370;2023-04-10T08:13:54;94604.69;;;9.26;59.53
36932;BME280;22847;42.654;23.370;2023-04-10T08:16:24;94774.69;;;10.69;58.82
36932;BME280;22847;42.654;23.370;2023-04-10T08:18:53;94642.38;;;10.17;58.22
36932;BME280;22847;42.654;23.370;2023-04-10T08:21:29;94615.47;;;10.16;57.92
36932;BME280;22847;42.654;23.370;2023-04-10T08:23:57;94775.94;;;11.30;57.03
36932;BME280;22847;42.654;23.370;2023-04-10T08:26:24;94665.13;;;10.79;56.30
36932;BME280;22847;42.654;23.370;2023-04-10T08:28:51;94594.56;;;9.89;58.13
36932;BME280;22847;42.654;23.370;2023-04-10T08:31:18;94768.56;;;11.43;56.56
36932;BME280;22847;42.654;23.370;2023-04-10T08:33:44;94741.41;;;11.53;56.27
36932;BME280;22847;42.654;23.370;2023-04-10T08:36:10;94701.59;;;11.34;55.56
36932;BME280;22847;42.654;23.370;2023-04-10T08:38:37;94622.50;;;10.88;55.31
36932;BME280;22847;42.654;23.370;2023-04-10T08:41:02;94521.81;;;10.42;54.67
36932;BME280;22847;42.654;23.370;2023-04-10T08:43:28;94611.56;;;11.20;54.55
36932;BME280;22847;42.654;23.370;2023-04-10T08:45:54;94782.63;;;12.13;54.65
36932;BME280;22847;42.654;23.370;2023-04-10T08:48:20;94791.22;;;11.70;55.46
36932;BME280;22847;42.654;23.370;2023-04-10T08:50:50;94712.59;;;11.28;65.67
36932;BME280;22847;42.654;23.370;2023-04-10T08:53:17;94586.50;;;11.88;52.83
36932;BME280;22847;42.654;23.370;2023-04-10T08:55:44;94773.06;;;12.65;52.54
36932;BME280;22847;42.654;23.370;2023-04-10T08:58:10;94590.81;;;11.36;53.13
36932;BME280;22847;42.654;23.370;2023-04-10T09:00:37;94594.19;;;10.93;54.07
36932;BME280;22847;42.654;23.370;2023-04-10T09:03:05;94767.25;;;12.10;53.55
36932;BME280;22847;42.654;23.370;2023-04-10T09:05:34;94770.19;;;12.06;54.04
36932;BME280;22847;42.654;23.370;2023-04-10T09:07:59;94762.88;;;11.30;55.60
36932;BME280;22847;42.654;23.370;2023-04-10T09:10:25;94788.94;;;11.12;56.37
36932;BME280;22847;42.654;23.370;2023-04-10T09:12:51;94744.72;;;11.10;56.29
36932;BME280;22847;42.654;23.370;2023-04-10T09:15:16;94747.84;;;11.14;56.13
36932;BME280;22847;42.654;23.370;2023-04-10T09:20:25;94734.59;;;10.80;56.70
36932;BME280;22847;42.654;23.370;2023-04-10T09:22:51;94758.59;;;11.11;56.11
36932;BME280;22847;42.654;23.370;2023-04-10T09:25:34;94627.88;;;10.59;55.60
36932;BME280;22847;42.654;23.370;2023-04-10T09:28:07;94786.72;;;11.35;55.88
36932;BME280;22847;42.654;23.370;2023-04-10T09:30:41;94735.34;;;11.35;55.12
36932;BME280;22847;42.654;23.370;2023-04-10T09:33:26;94748.28;;;11.54;54.78
36932;BME280;22847;42.654;23.370;2023-04-10T09:35:52;94757.38;;;11.05;56.07
36932;BME280;22847;42.654;23.370;2023-04-10T09:38:21;94724.94;;;11.08;55.54
36932;BME280;22847;42.654;23.370;2023-04-10T09:40:47;94778.03;;;11.44;56.02
36932;BME280;22847;42.654;23.370;2023-04-10T09:43:23;94766.03;;;11.51;56.52
36932;BME280;22847;42.654;23.370;2023-04-10T09:48:16;94636.78;;;10.39;56.86
36932;BME280;22847;42.654;23.370;2023-04-10T09:50:42;94716.53;;;11.14;56.62
36932;BME280;22847;42.654;23.370;2023-04-10T09:53:15;94662.69;;;11.31;56.37
36932;BME280;22847;42.654;23.370;2023-04-10T09:55:42;94765.56;;;11.83;56.32
36932;BME280;22847;42.654;23.370;2023-04-10T09:58:08;94736.50;;;12.03;54.17
36932;BME280;22847;42.654;23.370;2023-04-10T10:00:38;94700.00;;;11.23;55.82
36932;BME280;22847;42.654;23.370;2023-04-10T10:03:07;94712.84;;;11.70;53.26
36932;BME280;22847;42.654;23.370;2023-04-10T10:05:35;94718.63;;;11.73;51.84
36932;BME280;22847;42.654;23.370;2023-04-10T10:08:01;94733.13;;;11.40;52.95
36932;BME280;22847;42.654;23.370;2023-04-10T10:10:27;94550.88;;;10.83;52.40
36932;BME280;22847;42.654;23.370;2023-04-10T10:12:58;94723.78;;;12.08;51.77
36932;BME280;22847;42.654;23.370;2023-04-10T10:15:49;94721.91;;;12.19;51.30
36932;BME280;22847;42.654;23.370;2023-04-10T10:21:22;94733.78;;;12.13;50.50
36932;BME280;22847;42.654;23.370;2023-04-10T10:23:49;94671.25;;;11.94;50.47
36932;BME280;22847;42.654;23.370;2023-04-10T10:26:19;94710.63;;;12.44;50.01
36932;BME280;22847;42.654;23.370;2023-04-10T10:28:50;94666.56;;;15.16;51.47
36932;BME280;22847;42.654;23.370;2023-04-10T10:31:17;94707.84;;;17.11;46.53
36932;BME280;22847;42.654;23.370;2023-04-10T10:33:44;94673.19;;;17.14;38.57
36932;BME280;22847;42.654;23.370;2023-04-10T10:36:12;94692.47;;;17.14;39.04
36932;BME280;22847;42.654;23.370;2023-04-10T10:38:40;94694.09;;;16.19;40.60
36932;BME280;22847;42.654;23.370;2023-04-10T10:41:34;94682.97;;;15.72;42.10
36932;BME280;22847;42.654;23.370;2023-04-10T10:44:25;94684.84;;;15.01;43.52
36932;BME280;22847;42.654;23.370;2023-04-10T10:47:15;94656.28;;;14.67;43.49
36932;BME280;22847;42.654;23.370;2023-04-10T10:49:55;94671.19;;;14.67;43.99
36932;BME280;22847;42.654;23.370;2023-04-10T10:52:40;94676.38;;;13.88;45.33
36932;BME280;22847;42.654;23.370;2023-04-10T10:57:51;94658.03;;;13.55;46.59
36932;BME280;22847;42.654;23.370;2023-04-10T11:00:17;94661.63;;;13.70;46.00
36932;BME280;22847;42.654;23.370;2023-04-10T11:02:43;94535.91;;;13.54;45.35
36932;BME280;22847;42.654;23.370;2023-04-10T11:05:08;94648.22;;;14.69;44.57
36932;BME280;22847;42.654;23.370;2023-04-10T11:10:59;94638.81;;;14.83;44.19
36932;BME280;22847;42.654;23.370;2023-04-10T11:13:35;94507.09;;;14.48;43.81
36932;BME280;22847;42.654;23.370;2023-04-10T11:16:02;94640.88;;;15.26;43.39
36932;BME280;22847;42.654;23.370;2023-04-10T11:21:18;94646.06;;;14.01;44.63
36932;BME280;22847;42.654;23.370;2023-04-10T11:28:57;94595.13;;;13.88;44.41
36932;BME280;22847;42.654;23.370;2023-04-10T11:31:23;94634.09;;;13.34;46.17
36932;BME280;22847;42.654;23.370;2023-04-10T11:34:09;94635.06;;;13.25;47.56
36932;BME280;22847;42.654;23.370;2023-04-10T11:36:39;94625.91;;;13.21;48.94
36932;BME280;22847;42.654;23.370;2023-04-10T11:39:10;94589.94;;;13.55;48.06
36932;BME280;22847;42.654;23.370;2023-04-10T11:41:40;94602.69;;;13.66;47.19
36932;BME280;22847;42.654;23.370;2023-04-10T11:44:07;94664.56;;;13.92;47.68
36932;BME280;22847;42.654;23.370;2023-04-10T11:46:42;94633.03;;;14.32;45.57
36932;BME280;22847;42.654;23.370;2023-04-10T11:49:09;94629.50;;;14.09;47.63
36932;BME280;22847;42.654;23.370;2023-04-10T11:51:36;94576.28;;;14.00;45.14
36932;BME280;22847;42.654;23.370;2023-04-10T11:54:17;94458.66;;;12.93;46.28
36932;BME280;22847;42.654;23.370;2023-04-10T11:56:45;94427.09;;;12.95;45.60
36932;BME280;22847;42.654;23.370;2023-04-10T11:59:11;94632.28;;;12.68;47.41
36932;BME280;22847;42.654;23.370;2023-04-10T12:01:40;94525.22;;;11.83;47.96
36932;BME280;22847;42.654;23.370;2023-04-10T12:04:16;94621.34;;;12.65;47.67
36932;BME280;22847;42.654;23.370;2023-04-10T12:06:46;94605.09;;;12.19;48.96
36932;BME280;22847;42.654;23.370;2023-04-10T12:09:14;94618.53;;;11.98;50.42
36932;BME280;22847;42.654;23.370;2023-04-10T12:12:32;94603.25;;;11.60;51.45
36932;BME280;22847;42.654;23.370;2023-04-10T12:14:40;94635.53;;;11.59;53.14
36932;BME280;22847;42.654;23.370;2023-04-10T12:17:07;94509.50;;;11.05;54.60
36932;BME280;22847;42.654;23.370;2023-04-10T12:19:33;94556.22;;;11.34;58.20
36932;BME280;22847;42.654;23.370;2023-04-10T12:22:00;94418.91;;;10.72;58.52
36932;BME280;22847;42.654;23.370;2023-04-10T12:24:48;94503.47;;;11.74;57.74
36932;BME280;22847;42.654;23.370;2023-04-10T12:27:17;94639.06;;;12.11;58.29
36932;BME280;22847;42.654;23.370;2023-04-10T12:29:44;94608.03;;;11.90;59.52
36932;BME280;22847;42.654;23.370;2023-04-10T12:32:10;94657.06;;;12.22;59.36
36932;BME280;22847;42.654;23.370;2023-04-10T12:34:36;94624.41;;;12.26;60.79
36932;BME280;22847;42.654;23.370;2023-04-10T12:37:01;94646.19;;;12.35;60.07
36932;BME280;22847;42.654;23.370;2023-04-10T12:39:27;94439.44;;;11.10;59.93
36932;BME280;22847;42.654;23.370;2023-04-10T12:42:09;94621.81;;;12.68;59.54
36932;BME280;22847;42.654;23.370;2023-04-10T12:44:52;94451.22;;;11.74;59.12
36932;BME280;22847;42.654;23.370;2023-04-10T12:47:17;94595.69;;;12.84;57.75
36932;BME280;22847;42.654;23.370;2023-04-10T12:50:02;94636.84;;;13.16;61.59
36932;BME280;22847;42.654;23.370;2023-04-10T12:52:28;94620.03;;;13.27;54.28
36932;BME280;22847;42.654;23.370;2023-04-10T12:54:53;94449.94;;;12.28;53.81
36932;BME280;22847;42.654;23.370;2023-04-10T12:57:25;94626.91;;;13.52;53.82
36932;BME280;22847;42.654;23.370;2023-04-10T12:59:54;94591.06;;;13.53;54.24
36932;BME280;22847;42.654;23.370;2023-04-10T13:02:19;94615.81;;;13.50;52.57
36932;BME280;22847;42.654;23.370;2023-04-10T13:04:45;94641.63;;;13.21;54.21
36932;BME280;22847;42.654;23.370;2023-04-10T13:07:11;94609.56;;;13.51;53.91
36932;BME280;22847;42.654;23.370;2023-04-10T13:09:37;94595.00;;;13.57;52.96
36932;BME280;22847;42.654;23.370;2023-04-10T13:12:02;94638.34;;;13.92;52.55
36932;BME280;22847;42.654;23.370;2023-04-10T13:14:28;94501.19;;;13.52;52.54
36932;BME280;22847;42.654;23.370;2023-04-10T13:16:53;94570.84;;;14.02;51.59
36932;BME280;22847;42.654;23.370;2023-04-10T13:19:19;94597.19;;;14.16;51.75
36932;BME280;22847;42.654;23.370;2023-04-10T13:21:44;94598.66;;;14.19;52.70
36932;BME280;22847;42.654;23.370;2023-04-10T13:24:10;94589.06;;;13.95;52.94
36932;BME280;22847;42.654;23.370;2023-04-10T13:26:35;94597.03;;;14.18;52.15
36932;BME280;22847;42.654;23.370;2023-04-10T13:29:00;94556.19;;;14.23;51.33
36932;BME280;22847;42.654;23.370;2023-04-10T13:31:26;94535.41;;;14.22;50.89
36932;BME280;22847;42.654;23.370;2023-04-10T13:33:51;94544.09;;;14.22;52.47
36932;BME280;22847;42.654;23.370;2023-04-10T13:36:16;94587.78;;;14.46;50.55